Tuesday, January 23, 2018, 6:55 PM EST
Back to Local

KWWD, Wildwood, Cape May County Airport

Location: Villas, NJ, United States Lat: 39.017
Local Time: 6:55 PM EST (23:55 GMT) Lon: -74.917
Time Zone: US/Eastern Elev: 22 ft

Show me the last for .
Show Decoded

2018-01-23 17:55 METAR KWWD 232255Z AUTO 30009KT 10SM FEW065 SCT090 10/08 A2969 RMK AO2 SLP055
                 T01000078 =
2018-01-23 16:55 METAR KWWD 232155Z AUTO 31010G15KT 10SM FEW031 BKN042 OVC050 12/11 A2964 RMK AO2
                 RAB18E32 SLP040 P0001 T01220111 =
2018-01-23 15:55 METAR KWWD 232055Z AUTO 32003KT 10SM SCT031 BKN042 OVC060 12/11 A2960 RMK AO2
                 RAB1959E45 SLP025 P0010 60010 T01220111 55000 =
2018-01-23 15:27 METAR KWWD 232027Z AUTO 29004KT 10SM -RA FEW006 BKN042 OVC090 12/11 A2959 RMK
                 AO2 RAB1959 P0010 =
2018-01-23 15:05 METAR KWWD 232005Z AUTO 25014G19KT 5SM -RA BR FEW008 OVC022 14/13 A2958 RMK AO2
                 LTG DSNT N RAB1959 PRESRR P0006 =
2018-01-23 14:55 METAR KWWD 231955Z AUTO 18007KT 10SM BKN024 OVC028 14/13 A2955 RMK AO2 LTG DSNT
                 NW SLP010 T01440128 =
2018-01-23 14:04 METAR KWWD 231904Z AUTO 19010KT 10SM BKN021 BKN026 15/14 A2957 RMK AO2 =
2018-01-23 13:55 METAR KWWD 231855Z AUTO 18010KT 10SM SCT021 16/15 A2957 RMK AO2 SLP017 T01610150
                 =
2018-01-23 13:38 METAR KWWD 231838Z AUTO 20010KT 10SM SCT014 SCT100 17/15 A2958 RMK AO2 =
2018-01-23 13:07 METAR KWWD 231807Z AUTO 20011KT 10SM SCT004 OVC014 14/14 A2960 RMK AO2 =
2018-01-23 12:55 METAR KWWD 231755Z AUTO 19011KT 10SM BKN004 OVC014 14/14 A2960 RMK AO2 RAE31
                 SLP026 6//// T01440139 10144 20100 56042 =
2018-01-23 11:55 METAR KWWD 231655Z AUTO 19012G20KT 7SM RA OVC004 13/13 A2964 RMK AO2 LTG DSNT SE
                 AND S SLP040 T01280128 =
2018-01-23 10:55 METAR KWWD 231555Z AUTO 18014KT 10SM -RA BKN004 OVC070 13/13 A2967 RMK AO2 PK
                 WND 20030/1506 LTG DSNT S CIG 003V008 SLP049 P0003 T01330128 =
2018-01-23 10:01 METAR KWWD 231501Z AUTO 19020G27KT 8SM -RA OVC004 12/11 A2972 RMK AO2 PK WND
                 18027/1459 P0000 =
2018-01-23 09:55 METAR KWWD 231455Z AUTO 18021G27KT 5SM -RA BR OVC006 11/11 A2972 RMK AO2 PK WND
                 18033/1445 SLP067 P0008 60012 T01110106 55017 =
2018-01-23 09:11 METAR KWWD 231411Z AUTO 18021G32KT 6SM -RA BR OVC004 12/12 A2972 RMK AO2 PK WND
                 18032/1403 CIG 002V011 P0002 =
2018-01-23 08:55 METAR KWWD 231355Z AUTO 18022G29KT 5SM -RA BR OVC002 11/11 A2973 RMK AO2 PK WND
                 18029/1349 SLP068 P0003 T01110106 =
2018-01-23 08:03 METAR KWWD 231303Z AUTO 17017G22KT 1 3/4SM -RA BR OVC002 11/11 A2976 RMK AO2
                 PRESFR P0000 =
2018-01-23 07:55 METAR KWWD 231255Z AUTO 17019G24KT 1SM -RA BR OVC002 11/11 A2977 RMK AO2 SLP084
                 P0001 T01060106 =
2018-01-23 07:27 METAR KWWD 231227Z AUTO 17015KT 1/2SM -RA FG OVC002 11/10 A2980 RMK AO2 P0000 =
2018-01-23 07:20 METAR KWWD 231220Z AUTO 17015G23KT 1SM -RA BR OVC002 11/10 A2981 RMK AO2 P0000 =
2018-01-23 07:11 METAR KWWD 231211Z AUTO 17016G21KT 2SM -RA BR OVC002 11/10 A2981 RMK AO2 P0000 =
2018-01-23 07:01 METAR KWWD 231201Z AUTO 18013G24KT 1 1/2SM RA BR OVC002 11/11 A2982 RMK AO2
                 P0000 =
2018-01-23 06:55 METAR KWWD 231155Z AUTO 18017G24KT 2SM -RA BR OVC002 11/11 A2982 RMK AO2 RAB54
                 SLP100 P0000 60000 T01060106 10106 20083 58021 =
2018-01-23 06:36 METAR KWWD 231136Z AUTO 18016G23KT 4SM BR OVC002 11/10 A2983 RMK AO2 =
2018-01-23 05:55 METAR KWWD 231055Z AUTO 18018G21KT 10SM OVC004 10/09 A2985 RMK AO2 RAB18E30
                 SLP110 P0000 T01000094 =
2018-01-23 04:55 METAR KWWD 230955Z AUTO 17013KT 10SM BKN004 09/08 A2987 RMK AO2 SLP116 T00890083
                 =
2018-01-23 04:49 METAR KWWD 230949Z AUTO 17014KT 10SM BKN004 09/09 A2986 RMK AO2 =
2018-01-23 04:16 METAR KWWD 230916Z AUTO 17011KT 10SM FEW004 09/08 A2987 RMK AO2 =
2018-01-23 03:55 METAR KWWD 230855Z AUTO 16013KT 10SM CLR 09/08 A2988 RMK AO2 RAB00E21 SLP121
                 P0000 60000 T00890083 58037 =
2018-01-23 03:36 METAR KWWD 230836Z AUTO 17011KT 10SM SCT026 SCT031 BKN090 09/08 A2990 RMK AO2
                 RAB00E21 P0000 =
2018-01-23 02:55 METAR KWWD 230755Z AUTO 16010KT 10SM BKN026 BKN031 08/07 A2994 RMK AO2 SLP140
                 T00830072 =
2018-01-23 01:55 METAR KWWD 230655Z AUTO 18011KT 10SM SCT038 09/07 A2997 RMK AO2 SLP150 T00890072
                 =
2018-01-23 00:55 METAR KWWD 230555Z AUTO 18012KT 10SM CLR 08/06 A2999 RMK AO2 SLP159 T00830061
                 10094 20061 58023 =
2018-01-22 23:55 METAR KWWD 230455Z AUTO 16010KT 10SM SCT100 08/06 A3002 RMK AO2 PRESFR SLP169
                 T00830056 401670056 =
2018-01-22 22:55 METAR KWWD 230355Z AUTO 18010KT 10SM SCT110 08/06 A3006 RMK AO2 SLP181 T00780056
                 =
2018-01-22 21:55 METAR KWWD 230255Z AUTO 18009KT 10SM CLR 06/03 A3006 RMK AO2 SLP182 T00610033
                 57014 =
2018-01-22 20:55 METAR KWWD 230155Z AUTO 16011KT 10SM CLR 07/02 A3007 RMK AO2 SLP186 T00670022 =
2018-01-22 19:55 METAR KWWD 230055Z AUTO 16009KT 10SM CLR 07/03 A3009 RMK AO2 SLP193 T00720033 =

Support USWX by starting your Amazon purchase here.